Time;durP1;ratioP1;P1;durP2;ratioP2;P2;SDS_P1;SDS_P2;PMS_P1;PMS_P2;Temp;Humidity;BMP_temperature;BMP_pressure;BME280_temperature;BME280_humidity;BME280_pressure;Samples;Min_cycle;Max_cycle;Signal;HPM_P1;HPM_P2
2022/07/20 00:00:26;;;;;;;;;;;;;;;30.71;21.89;99532.16;4379858;32;34242;-82
2022/07/20 00:02:53;;;;;;;;;;;;;;;30.70;21.68;99537.63;4360605;32;33017;-84
2022/07/20 00:05:21;;;;;;;;;;;;;;;30.57;21.77;99534.00;4376887;32;33802;-89
2022/07/20 00:07:48;;;;;;;;;;;;;;;30.71;21.63;99540.19;4369992;32;35328;-84
2022/07/20 00:13:01;;;;;;;;;;;;;;;30.72;21.51;99541.94;4375792;32;31773;-83
2022/07/20 00:15:29;;;;;;;;;;;;;;;30.56;21.56;99537.66;4376776;32;34572;-84
2022/07/20 00:17:56;;;;;;;;;;;;;;;30.62;21.53;99534.59;4356101;32;34375;-83
2022/07/20 00:20:24;;;;;;;;;;;;;;;30.53;21.69;99528.87;4373200;32;34178;-83
2022/07/20 00:22:52;;;;;;;;;;;;;;;30.49;21.72;99527.31;4358247;32;31344;-85
2022/07/20 00:25:20;;;;;;;;;;;;;;;30.42;21.88;99530.50;4366036;32;32734;-83
2022/07/20 00:27:47;;;;;;;;;;;;;;;30.40;21.94;99532.41;4362856;32;33765;-92
2022/07/20 00:30:14;;;;;;;;;;;;;;;30.52;21.71;99528.97;4375904;32;34010;-86
2022/07/20 00:32:42;;;;;;;;;;;;;;;30.27;21.89;99527.84;4367839;32;33386;-82
2022/07/20 00:35:11;;;;;;;;;;;;;;;30.15;22.08;99533.03;4369108;32;33394;-86
2022/07/20 00:37:39;;;;;;;;;;;;;;;30.37;21.92;99528.09;4370297;32;35397;-82
2022/07/20 00:40:08;;;;;;;;;;;;;;;30.34;21.93;99528.28;4374019;32;33655;-83
2022/07/20 00:42:36;;;;;;;;;;;;;;;30.38;21.91;99527.16;4359490;32;32884;-80
2022/07/20 00:45:04;;;;;;;;;;;;;;;30.43;21.91;99535.75;4369648;32;33987;-82
2022/07/20 00:47:31;;;;;;;;;;;;;;;30.46;21.96;99538.25;4376508;32;35272;-81
2022/07/20 00:49:59;;;;;;;;;;;;;;;30.48;21.95;99536.31;4391645;32;33343;-83
2022/07/20 00:52:26;;;;;;;;;;;;;;;30.60;21.87;99536.50;4354702;32;32651;-82
2022/07/20 00:54:54;;;;;;;;;;;;;;;30.57;21.75;99531.34;4360628;32;34068;-82
2022/07/20 00:57:22;;;;;;;;;;;;;;;30.43;21.80;99521.53;4388863;32;34392;-82
2022/07/20 00:59:49;;;;;;;;;;;;;;;30.41;21.80;99531.44;4388263;32;34818;-81
2022/07/20 01:02:16;;;;;;;;;;;;;;;30.48;21.78;99530.97;4366318;32;33340;-82
2022/07/20 01:04:43;;;;;;;;;;;;;;;30.47;21.79;99531.94;4368005;32;33968;-83
2022/07/20 01:07:11;;;;;;;;;;;;;;;30.54;21.80;99535.09;4363978;32;35194;-83
2022/07/20 01:09:38;;;;;;;;;;;;;;;30.58;21.72;99536.59;4391804;32;34345;-83
2022/07/20 01:12:05;;;;;;;;;;;;;;;30.58;21.65;99530.41;4386077;32;33418;-82
2022/07/20 01:14:33;;;;;;;;;;;;;;;30.41;21.75;99532.31;4366845;32;34443;-86
2022/07/20 01:17:00;;;;;;;;;;;;;;;30.42;21.75;99534.03;4370813;32;34404;-83
2022/07/20 01:19:28;;;;;;;;;;;;;;;30.45;21.72;99527.63;4391463;32;34271;-84
2022/07/20 01:21:55;;;;;;;;;;;;;;;30.32;21.76;99527.56;4365663;32;33144;-88
2022/07/20 01:24:22;;;;;;;;;;;;;;;30.38;21.70;99527.16;4376094;32;34197;-84
2022/07/20 01:26:49;;;;;;;;;;;;;;;30.29;21.89;99520.56;4377198;32;34392;-83
2022/07/20 01:29:17;;;;;;;;;;;;;;;30.40;21.87;99532.41;4375958;32;34204;-82
2022/07/20 01:31:44;;;;;;;;;;;;;;;30.39;21.94;99531.56;4378779;32;33292;-82
2022/07/20 01:34:11;;;;;;;;;;;;;;;30.40;21.92;99527.91;4377455;32;34195;-82
2022/07/20 01:36:39;;;;;;;;;;;;;;;30.38;22.03;99529.81;4377238;32;34171;-82
2022/07/20 01:39:06;;;;;;;;;;;;;;;30.39;22.13;99530.72;4380982;32;34814;-82
2022/07/20 01:41:33;;;;;;;;;;;;;;;30.28;21.99;99528.69;4377903;32;33483;-90
2022/07/20 01:44:03;;;;;;;;;;;;;;;30.13;22.22;99538.50;4377752;32;33788;-92
2022/07/20 01:46:30;;;;;;;;;;;;;;;30.23;22.15;99538.81;4373768;32;34353;-83
2022/07/20 01:48:57;;;;;;;;;;;;;;;30.20;22.10;99541.69;4376609;32;34562;-82
2022/07/20 01:51:25;;;;;;;;;;;;;;;30.08;22.24;99531.72;4376107;32;33663;-84
2022/07/20 01:53:52;;;;;;;;;;;;;;;30.10;22.28;99535.16;4364325;32;33361;-83
2022/07/20 01:56:19;;;;;;;;;;;;;;;30.12;22.31;99533.22;4374167;32;34625;-83
2022/07/20 01:58:47;;;;;;;;;;;;;;;30.15;22.49;99544.59;4381276;32;34241;-82
2022/07/20 02:01:16;;;;;;;;;;;;;;;30.03;22.69;99535.53;4382524;32;33474;-83
2022/07/20 02:03:44;;;;;;;;;;;;;;;30.01;22.75;99540.12;4359405;32;33941;-83
2022/07/20 02:06:11;;;;;;;;;;;;;;;30.00;22.67;99534.84;4361012;32;34247;-83
2022/07/20 02:08:38;;;;;;;;;;;;;;;30.02;22.68;99533.81;4359851;32;34095;-84
2022/07/20 02:11:06;;;;;;;;;;;;;;;30.04;22.73;99542.63;4361126;32;33091;-84
2022/07/20 02:13:35;;;;;;;;;;;;;;;30.01;22.88;99542.81;4355888;32;32461;-94
2022/07/20 02:16:16;;;;;;;;;;;;;;;29.88;23.16;99539.13;4347126;33;34621;-83
2022/07/20 02:18:51;;;;;;;;;;;;;;;29.87;23.29;99540.09;4345542;32;33636;-83
2022/07/20 02:21:20;;;;;;;;;;;;;;;29.93;23.47;99544.19;4348894;32;32969;-83
2022/07/20 02:23:48;;;;;;;;;;;;;;;29.78;23.42;99540.69;4348480;32;34432;-82
2022/07/20 02:26:16;;;;;;;;;;;;;;;29.60;23.61;99544.44;4356808;32;35322;-87
2022/07/20 02:28:43;;;;;;;;;;;;;;;29.60;23.51;99544.44;4360839;32;34074;-82
2022/07/20 02:31:10;;;;;;;;;;;;;;;29.55;23.41;99542.88;4352564;32;33549;-82
2022/07/20 02:33:38;;;;;;;;;;;;;;;29.53;23.41;99542.09;4360639;32;35172;-82
2022/07/20 02:36:05;;;;;;;;;;;;;;;29.46;23.45;99543.41;4360573;32;34364;-82
2022/07/20 02:38:32;;;;;;;;;;;;;;;29.44;23.54;99542.66;4350224;32;34526;-86
2022/07/20 02:41:00;;;;;;;;;;;;;;;29.51;23.44;99537.78;4360440;32;33495;-82
2022/07/20 02:43:27;;;;;;;;;;;;;;;29.47;23.54;99534.47;4374619;32;34310;-83
2022/07/20 02:45:54;;;;;;;;;;;;;;;29.45;23.58;99536.34;4365980;32;34180;-82
2022/07/20 02:48:22;;;;;;;;;;;;;;;29.45;23.51;99539.03;4352581;32;34536;-82
2022/07/20 02:50:49;;;;;;;;;;;;;;;29.45;23.51;99535.50;4375513;32;33838;-82
2022/07/20 02:53:16;;;;;;;;;;;;;;;29.37;23.55;99532.41;4364807;32;35114;-85
2022/07/20 02:55:44;;;;;;;;;;;;;;;29.34;23.44;99536.13;4355101;32;34479;-83
2022/07/20 02:58:11;;;;;;;;;;;;;;;29.27;23.51;99540.09;4362219;32;34273;-84
2022/07/20 03:00:39;;;;;;;;;;;;;;;29.24;23.47;99541.13;4361995;32;33823;-84
2022/07/20 03:03:07;;;;;;;;;;;;;;;29.07;23.79;99539.44;4344592;32;35201;-87
2022/07/20 03:05:34;;;;;;;;;;;;;;;29.12;23.69;99546.31;4355423;32;34386;-88
2022/07/20 03:08:02;;;;;;;;;;;;;;;29.16;23.80;99543.37;4356822;32;33930;-83
2022/07/20 03:10:29;;;;;;;;;;;;;;;29.13;23.69;99543.56;4372167;32;32746;-84
2022/07/20 03:12:56;;;;;;;;;;;;;;;29.29;23.55;99548.91;4361497;32;32432;-84
2022/07/20 03:15:24;;;;;;;;;;;;;;;29.19;23.68;99548.56;4360198;32;34500;-88
2022/07/20 03:17:52;;;;;;;;;;;;;;;29.24;23.71;99545.59;4360594;32;33940;-83
2022/07/20 03:20:21;;;;;;;;;;;;;;;29.28;23.70;99542.69;4352801;32;33299;-83
2022/07/20 03:22:48;;;;;;;;;;;;;;;29.19;23.83;99545.88;4340991;32;34942;-83
2022/07/20 03:25:16;;;;;;;;;;;;;;;29.24;23.80;99550.94;4359068;32;34451;-82
2022/07/20 03:27:43;;;;;;;;;;;;;;;29.05;23.98;99556.50;4358215;32;34349;-84
2022/07/20 03:30:11;;;;;;;;;;;;;;;29.07;24.19;99559.94;4363078;32;33764;-84
2022/07/20 03:32:38;;;;;;;;;;;;;;;29.08;24.13;99549.16;4353708;32;33122;-83
2022/07/20 03:35:05;;;;;;;;;;;;;;;29.07;24.15;99551.94;4360863;32;35244;-83
2022/07/20 03:37:33;;;;;;;;;;;;;;;29.12;24.14;99560.53;4352915;32;34286;-84
2022/07/20 03:40:00;;;;;;;;;;;;;;;29.14;24.24;99563.12;4366428;32;33228;-84
2022/07/20 03:42:27;;;;;;;;;;;;;;;29.13;24.28;99564.06;4364837;32;34356;-89
2022/07/20 03:44:55;;;;;;;;;;;;;;;29.17;24.21;99568.28;4360547;32;34047;-83
2022/07/20 03:47:23;;;;;;;;;;;;;;;29.11;24.30;99564.16;4363553;32;33811;-82
2022/07/20 03:49:50;;;;;;;;;;;;;;;29.14;24.24;99560.47;4363499;32;33275;-82
2022/07/20 03:52:18;;;;;;;;;;;;;;;29.08;24.42;99562.53;4370379;32;34034;-83
2022/07/20 03:54:46;;;;;;;;;;;;;;;29.15;24.66;99572.84;4361938;32;33747;-80
2022/07/20 03:57:13;;;;;;;;;;;;;;;29.30;24.78;99577.31;4360631;32;35107;-83
2022/07/20 03:59:42;;;;;;;;;;;;;;;29.52;24.95;99576.94;4369746;32;33961;-83
2022/07/20 04:02:10;;;;;;;;;;;;;;;29.64;24.97;99578.03;4348360;32;32228;-82
2022/07/20 04:04:45;;;;;;;;;;;;;;;29.68;24.79;99587.59;4366729;32;34380;-83
2022/07/20 04:07:12;;;;;;;;;;;;;;;29.79;24.96;99578.00;4377343;32;35067;-85
2022/07/20 04:09:49;;;;;;;;;;;;;;;29.92;25.29;99578.09;4378333;32;33476;-85
2022/07/20 04:12:18;;;;;;;;;;;;;;;30.14;25.34;99576.78;4359943;32;34409;-84
2022/07/20 04:14:46;;;;;;;;;;;;;;;30.21;25.27;99583.53;4364323;32;34874;-84
2022/07/20 04:17:13;;;;;;;;;;;;;;;30.54;24.96;99578.75;4377714;32;34281;-85
2022/07/20 04:19:41;;;;;;;;;;;;;;;30.75;24.77;99576.53;4378133;32;33523;-84
2022/07/20 04:22:08;;;;;;;;;;;;;;;31.13;24.44;99572.34;4364322;32;35014;-82
2022/07/20 04:24:35;;;;;;;;;;;;;;;31.23;24.60;99570.78;4351819;32;34459;-81
2022/07/20 04:27:03;;;;;;;;;;;;;;;31.65;24.14;99580.47;4377531;32;33820;-84
2022/07/20 04:29:30;;;;;;;;;;;;;;;32.03;23.55;99582.37;4361917;32;34243;-83
2022/07/20 04:31:57;;;;;;;;;;;;;;;32.12;23.81;99581.72;4376690;32;34918;-89
2022/07/20 04:34:25;;;;;;;;;;;;;;;32.53;22.99;99579.81;4365165;32;34053;-81
2022/07/20 04:36:52;;;;;;;;;;;;;;;32.71;22.93;99583.84;4378266;32;33991;-82
2022/07/20 04:39:19;;;;;;;;;;;;;;;32.92;22.80;99576.94;4376054;32;34129;-82
2022/07/20 04:41:47;;;;;;;;;;;;;;;32.85;22.17;99585.56;4384172;32;34066;-82
2022/07/20 04:44:14;;;;;;;;;;;;;;;33.64;22.38;99584.16;4376490;32;34359;-84
2022/07/20 04:46:41;;;;;;;;;;;;;;;34.12;22.08;99584.94;4346377;32;34067;-81
2022/07/20 04:49:09;;;;;;;;;;;;;;;34.49;21.43;99587.44;4364111;32;33257;-82
2022/07/20 04:51:36;;;;;;;;;;;;;;;34.53;21.15;99586.22;4362596;32;35197;-82
2022/07/20 04:54:04;;;;;;;;;;;;;;;34.80;20.99;99583.13;4374724;32;35437;-82
2022/07/20 04:56:31;;;;;;;;;;;;;;;34.79;20.97;99581.44;4375950;32;34025;-85
2022/07/20 04:58:58;;;;;;;;;;;;;;;34.81;21.30;99586.69;4376034;32;33558;-82
2022/07/20 05:01:25;;;;;;;;;;;;;;;35.16;20.88;99585.66;4362825;32;34095;-81
2022/07/20 05:03:53;;;;;;;;;;;;;;;34.91;20.95;99584.09;4341850;32;35088;-81
2022/07/20 05:06:20;;;;;;;;;;;;;;;34.62;21.30;99587.31;4364398;32;33713;-82
2022/07/20 05:08:48;;;;;;;;;;;;;;;33.70;21.80;99594.47;4391413;32;34311;-82
2022/07/20 05:11:15;;;;;;;;;;;;;;;33.55;22.22;99601.00;4376647;32;34078;-84
2022/07/20 05:13:43;;;;;;;;;;;;;;;34.40;21.96;99593.53;4376203;32;33878;-87
2022/07/20 05:16:10;;;;;;;;;;;;;;;35.54;20.20;99596.00;4378870;32;33553;-79
2022/07/20 05:18:38;;;;;;;;;;;;;;;35.94;18.92;99597.97;4373156;32;34036;-79
2022/07/20 05:21:06;;;;;;;;;;;;;;;34.33;20.45;99592.31;4368754;32;34331;-81
2022/07/20 05:23:33;;;;;;;;;;;;;;;34.72;19.80;99588.28;4374562;32;35066;-81
2022/07/20 05:26:01;;;;;;;;;;;;;;;34.54;20.23;99592.44;4358239;32;33813;-82
2022/07/20 05:28:28;;;;;;;;;;;;;;;34.87;20.12;99591.56;4362183;32;32246;-81
2022/07/20 05:30:56;;;;;;;;;;;;;;;34.92;19.93;99588.50;4375748;32;34175;-82
2022/07/20 05:33:23;;;;;;;;;;;;;;;34.02;20.27;99599.22;4388384;32;35275;-82
2022/07/20 05:35:51;;;;;;;;;;;;;;;32.78;20.59;99595.88;4380895;32;34090;-81
2022/07/20 05:38:19;;;;;;;;;;;;;;;32.55;21.55;99600.22;4368499;32;31581;-81
2022/07/20 05:40:46;;;;;;;;;;;;;;;32.82;21.14;99597.37;4364328;32;33817;-82
2022/07/20 05:43:14;;;;;;;;;;;;;;;33.08;20.58;99597.34;4372843;32;35182;-81
2022/07/20 05:45:41;;;;;;;;;;;;;;;32.98;21.09;99601.66;4377219;32;33940;-79
2022/07/20 05:48:14;;;;;;;;;;;;;;;34.27;19.94;99599.03;4373286;32;32633;-82
2022/07/20 05:50:42;;;;;;;;;;;;;;;33.97;20.52;99606.75;4370542;32;34041;-81
2022/07/20 05:53:09;;;;;;;;;;;;;;;32.82;21.88;99601.88;4374394;32;34033;-85
2022/07/20 05:55:37;;;;;;;;;;;;;;;32.69;22.26;99596.53;4368017;32;35035;-83
2022/07/20 05:58:05;;;;;;;;;;;;;;;33.42;21.79;99606.44;4375626;32;33619;-80
2022/07/20 06:00:32;;;;;;;;;;;;;;;33.83;21.53;99599.75;4372472;32;33968;-80
2022/07/20 06:03:00;;;;;;;;;;;;;;;33.54;21.16;99605.53;4375863;32;32960;-83
2022/07/20 06:05:27;;;;;;;;;;;;;;;34.17;21.56;99600.72;4364005;32;34602;-83
2022/07/20 06:07:55;;;;;;;;;;;;;;;34.93;19.69;99600.97;4390894;32;33539;-81
2022/07/20 06:10:23;;;;;;;;;;;;;;;35.43;19.73;99599.53;4374584;32;34110;-83
2022/07/20 06:12:51;;;;;;;;;;;;;;;35.54;18.58;99604.94;4379934;32;34944;-82
2022/07/20 06:15:19;;;;;;;;;;;;;;;35.69;18.91;99599.22;4377190;32;34929;-82
2022/07/20 06:17:47;;;;;;;;;;;;;;;35.39;18.85;99602.63;4373886;32;33231;-80
2022/07/20 06:20:14;;;;;;;;;;;;;;;34.83;19.43;99593.66;4375242;32;35087;-81
2022/07/20 06:22:42;;;;;;;;;;;;;;;35.62;19.96;99606.97;4387501;32;34349;-82
2022/07/20 06:25:10;;;;;;;;;;;;;;;35.13;20.58;99605.66;4391103;32;34147;-82
2022/07/20 06:27:38;;;;;;;;;;;;;;;36.17;19.03;99615.75;4369160;32;34123;-89
2022/07/20 06:30:07;;;;;;;;;;;;;;;36.93;18.15;99608.16;4359457;32;32636;-81
2022/07/20 06:32:34;;;;;;;;;;;;;;;37.36;17.92;99615.13;4359024;32;34530;-84
2022/07/20 06:35:02;;;;;;;;;;;;;;;37.32;16.97;99607.44;4373881;32;33470;-82
2022/07/20 06:37:29;;;;;;;;;;;;;;;36.95;17.27;99603.50;4365778;32;34151;-80
2022/07/20 06:39:57;;;;;;;;;;;;;;;37.18;17.89;99616.78;4375419;32;33777;-81
2022/07/20 06:42:24;;;;;;;;;;;;;;;37.90;17.74;99613.75;4377739;32;35071;-81
2022/07/20 06:44:51;;;;;;;;;;;;;;;37.28;17.41;99608.69;4361797;32;34102;-82
2022/07/20 06:47:19;;;;;;;;;;;;;;;36.68;17.78;99604.13;4362267;32;33743;-91
2022/07/20 06:49:46;;;;;;;;;;;;;;;36.60;18.47;99603.94;4375148;32;33880;-81
2022/07/20 06:52:13;;;;;;;;;;;;;;;37.42;18.28;99609.16;4373756;32;33972;-82
2022/07/20 06:54:41;;;;;;;;;;;;;;;36.70;17.92;99603.97;4375470;32;34345;-81
2022/07/20 06:57:08;;;;;;;;;;;;;;;36.89;17.68;99605.88;4362462;32;32747;-82
2022/07/20 06:59:37;;;;;;;;;;;;;;;36.37;17.35;99603.25;4375023;32;33928;-81
2022/07/20 07:02:04;;;;;;;;;;;;;;;36.58;16.51;99596.97;4364428;32;34477;-80
2022/07/20 07:04:34;;;;;;;;;;;;;;;37.71;16.61;99598.34;4371679;32;32403;-88
2022/07/20 07:07:02;;;;;;;;;;;;;;;37.64;16.35;99605.31;4385261;32;33121;-82
2022/07/20 07:09:29;;;;;;;;;;;;;;;36.07;16.38;99604.06;4386255;32;34023;-81
2022/07/20 07:11:57;;;;;;;;;;;;;;;36.68;16.97;99596.00;4365650;32;33351;-83
2022/07/20 07:14:25;;;;;;;;;;;;;;;37.41;15.90;99606.56;4366673;32;35422;-89
2022/07/20 07:16:53;;;;;;;;;;;;;;;35.76;18.56;99606.66;4369415;32;33356;-84
2022/07/20 07:19:21;;;;;;;;;;;;;;;37.15;17.71;99608.97;4353689;32;34329;-82
2022/07/20 07:21:48;;;;;;;;;;;;;;;37.26;16.84;99606.97;4379329;32;34393;-82
2022/07/20 07:24:15;;;;;;;;;;;;;;;37.29;17.00;99603.16;4366117;32;35041;-86
2022/07/20 07:26:43;;;;;;;;;;;;;;;37.87;17.98;99608.56;4378683;32;33410;-82
2022/07/20 07:29:10;;;;;;;;;;;;;;;37.78;18.35;99608.59;4379789;32;34791;-82
2022/07/20 07:31:37;;;;;;;;;;;;;;;37.78;17.85;99608.59;4379684;32;35360;-82
2022/07/20 07:34:05;;;;;;;;;;;;;;;36.42;18.58;99605.53;4382950;32;34590;-83
2022/07/20 07:36:32;;;;;;;;;;;;;;;35.60;20.35;99606.25;4371354;32;33822;-81
2022/07/20 07:38:59;;;;;;;;;;;;;;;36.67;19.50;99615.91;4380738;32;34883;-81
2022/07/20 07:41:27;;;;;;;;;;;;;;;35.53;20.55;99613.97;4375002;32;34454;-83
2022/07/20 07:43:54;;;;;;;;;;;;;;;36.24;20.37;99622.34;4377958;32;34198;-82
2022/07/20 07:46:21;;;;;;;;;;;;;;;36.63;19.72;99613.59;4367096;32;32953;-90
2022/07/20 07:48:50;;;;;;;;;;;;;;;37.94;17.64;99608.88;4373834;32;33228;-89
2022/07/20 07:51:18;;;;;;;;;;;;;;;37.58;18.31;99611.31;4379044;32;34393;-82
2022/07/20 07:53:45;;;;;;;;;;;;;;;37.91;18.09;99614.59;4366445;32;34960;-85
2022/07/20 07:56:13;;;;;;;;;;;;;;;37.60;18.41;99609.31;4382107;32;32922;-82
2022/07/20 07:58:40;;;;;;;;;;;;;;;37.29;19.11;99613.13;4379775;32;33804;-83
2022/07/20 08:01:07;;;;;;;;;;;;;;;34.99;20.81;99611.28;4349871;32;34455;-82
2022/07/20 08:03:35;;;;;;;;;;;;;;;35.57;19.96;99607.38;4364857;32;34865;-84
2022/07/20 08:06:03;;;;;;;;;;;;;;;36.11;19.79;99610.91;4379485;32;33448;-82
2022/07/20 08:08:30;;;;;;;;;;;;;;;36.80;18.64;99601.31;4379873;32;35024;-81
2022/07/20 08:10:58;;;;;;;;;;;;;;;36.70;19.41;99604.81;4365580;32;34300;-80
2022/07/20 08:13:25;;;;;;;;;;;;;;;36.69;19.87;99605.81;4386314;32;35009;-82
2022/07/20 08:15:54;;;;;;;;;;;;;;;37.11;18.63;99599.41;4377941;32;33308;-84
2022/07/20 08:18:22;;;;;;;;;;;;;;;36.95;18.84;99598.09;4374686;32;34957;-83
2022/07/20 08:20:50;;;;;;;;;;;;;;;36.53;18.89;99598.22;4376661;32;34203;-82
2022/07/20 08:23:17;;;;;;;;;;;;;;;36.83;19.58;99595.63;4378208;32;34216;-81
2022/07/20 08:25:44;;;;;;;;;;;;;;;37.37;18.70;99602.44;4376427;32;33385;-82
2022/07/20 08:28:16;;;;;;;;;;;;;;;37.39;18.52;99597.72;4362915;32;34601;-81
2022/07/20 08:30:44;;;;;;;;;;;;;;;36.98;19.02;99599.69;4361338;32;34131;-89
2022/07/20 08:33:22;;;;;;;;;;;;;;;37.76;18.12;99603.31;4374663;32;33832;-80
2022/07/20 08:35:49;;;;;;;;;;;;;;;36.81;18.94;99592.19;4376098;32;32990;-85
2022/07/20 08:38:17;;;;;;;;;;;;;;;36.48;18.94;99596.91;4384622;32;34354;-82
2022/07/20 08:40:46;;;;;;;;;;;;;;;37.46;18.00;99604.31;4371590;32;34556;-88
2022/07/20 08:43:15;;;;;;;;;;;;;;;35.40;18.85;99604.34;4362372;32;34149;-83
2022/07/20 08:45:43;;;;;;;;;;;;;;;36.06;17.93;99589.69;4376795;32;33343;-82
2022/07/20 08:48:12;;;;;;;;;;;;;;;36.49;18.63;99593.25;4362899;32;33994;-82
2022/07/20 08:50:40;;;;;;;;;;;;;;;36.39;17.99;99589.59;4362929;32;35189;-80
2022/07/20 08:53:07;;;;;;;;;;;;;;;36.70;17.94;99588.59;4379841;32;34242;-83
2022/07/20 08:55:34;;;;;;;;;;;;;;;37.36;16.84;99584.53;4384043;32;34274;-81
2022/07/20 08:58:01;;;;;;;;;;;;;;;38.05;17.15;99587.06;4363567;32;33243;-81
2022/07/20 09:00:29;;;;;;;;;;;;;;;36.71;17.61;99584.94;4362013;32;34416;-87
2022/07/20 09:03:03;;;;;;;;;;;;;;;37.05;17.22;99591.84;4377290;32;33651;-81
2022/07/20 09:05:32;;;;;;;;;;;;;;;36.10;17.46;99579.50;4373304;32;33287;-81
2022/07/20 09:08:00;;;;;;;;;;;;;;;37.03;17.22;99574.94;4347777;32;31646;-82
2022/07/20 09:10:28;;;;;;;;;;;;;;;37.23;16.05;99577.50;4367784;32;34510;-82
2022/07/20 09:13:04;;;;;;;;;;;;;;;37.84;16.08;99580.94;4375335;32;33959;-79
2022/07/20 09:15:39;;;;;;;;;;;;;;;37.73;15.90;99568.41;4377310;32;34375;-88
2022/07/20 09:18:06;;;;;;;;;;;;;;;38.43;15.60;99574.44;4371850;32;34392;-81
2022/07/20 09:20:34;;;;;;;;;;;;;;;37.62;15.64;99580.28;4378231;32;33721;-87
2022/07/20 09:23:02;;;;;;;;;;;;;;;37.51;15.92;99575.00;4375689;32;34805;-82
2022/07/20 09:25:30;;;;;;;;;;;;;;;38.04;14.88;99566.44;4375839;32;33453;-81
2022/07/20 09:27:58;;;;;;;;;;;;;;;38.06;15.37;99564.41;4373720;32;34012;-81
2022/07/20 09:30:25;;;;;;;;;;;;;;;37.73;15.18;99554.88;4359990;32;34284;-82
2022/07/20 09:33:00;;;;;;;;;;;;;;;37.16;15.38;99570.97;4372617;32;33988;-86
2022/07/20 09:35:29;;;;;;;;;;;;;;;37.87;14.92;99561.72;4376162;32;33300;-82
2022/07/20 09:37:58;;;;;;;;;;;;;;;38.28;15.30;99551.53;4376894;32;34088;-81
2022/07/20 09:40:25;;;;;;;;;;;;;;;37.89;15.05;99559.75;4386201;32;34330;-80
2022/07/20 09:42:53;;;;;;;;;;;;;;;37.90;15.52;99553.34;4372888;32;34640;-85
2022/07/20 09:45:24;;;;;;;;;;;;;;;37.66;15.21;99554.62;4375731;32;33026;-83
2022/07/20 09:48:12;;;;;;;;;;;;;;;37.65;14.96;99552.06;4364367;32;34334;-81
2022/07/20 09:50:41;;;;;;;;;;;;;;;38.31;14.32;99543.94;4379340;32;34627;-83
2022/07/20 09:53:09;;;;;;;;;;;;;;;38.47;14.09;99546.03;4380084;32;34517;-87
2022/07/20 09:55:37;;;;;;;;;;;;;;;38.77;13.96;99539.47;4377451;32;32982;-87
2022/07/20 09:58:05;;;;;;;;;;;;;;;38.08;14.59;99538.06;4367779;32;33827;-82
2022/07/20 10:00:32;;;;;;;;;;;;;;;38.90;13.93;99541.81;4363116;32;33550;-81
2022/07/20 10:03:00;;;;;;;;;;;;;;;38.92;14.46;99546.09;4375327;32;34493;-81
2022/07/20 10:05:33;;;;;;;;;;;;;;;38.80;13.70;99541.91;4383812;32;33486;-82
2022/07/20 10:08:01;;;;;;;;;;;;;;;38.62;14.17;99527.44;4376932;32;33647;-83
2022/07/20 10:10:29;;;;;;;;;;;;;;;38.96;13.29;99533.09;4364981;32;34256;-81
2022/07/20 10:12:57;;;;;;;;;;;;;;;38.68;13.21;99533.09;4375404;32;33976;-82
2022/07/20 10:15:29;;;;;;;;;;;;;;;38.13;14.53;99534.91;4362130;32;33127;-80
2022/07/20 10:17:56;;;;;;;;;;;;;;;38.66;14.01;99524.25;4361885;32;34258;-80
2022/07/20 10:20:30;;;;;;;;;;;;;;;38.96;13.42;99530.38;4349704;32;34374;-82
2022/07/20 10:23:16;;;;;;;;;;;;;;;37.02;15.16;99525.44;4361449;32;34077;-83
2022/07/20 10:26:04;;;;;;;;;;;;;;;38.28;14.17;99519.03;4351363;32;32556;-82
2022/07/20 10:28:33;;;;;;;;;;;;;;;39.12;13.86;99514.28;4362377;32;34676;-86
2022/07/20 10:31:08;;;;;;;;;;;;;;;39.10;13.55;99515.44;4349954;32;34355;-88
2022/07/20 10:33:37;;;;;;;;;;;;;;;39.39;13.31;99518.78;4375409;32;34526;-91
2022/07/20 10:38:55;;;;;;;;;;;;;;;39.37;13.29;99517.25;4362987;32;34073;-93
2022/07/20 10:41:31;;;;;;;;;;;;;;;38.74;13.69;99509.09;4376018;32;34634;-83
2022/07/20 10:44:18;;;;;;;;;;;;;;;39.89;13.01;99507.31;4375026;32;33826;-82
2022/07/20 10:46:45;;;;;;;;;;;;;;;37.94;13.65;99511.44;4375087;32;33025;-80
2022/07/20 10:49:13;;;;;;;;;;;;;;;40.00;12.74;99517.03;4375111;32;35056;-80
2022/07/20 10:51:40;;;;;;;;;;;;;;;39.37;13.41;99498.25;4348717;32;33364;-81
2022/07/20 10:54:27;;;;;;;;;;;;;;;39.59;12.77;99505.03;4383790;32;35013;-82
2022/07/20 10:56:54;;;;;;;;;;;;;;;38.97;13.39;99501.41;4368476;32;34048;-83
2022/07/20 10:59:21;;;;;;;;;;;;;;;39.18;13.43;99502.81;4378949;32;34477;-79
2022/07/20 11:01:48;;;;;;;;;;;;;;;39.26;12.94;99504.78;4385367;32;34118;-78
2022/07/20 11:04:17;;;;;;;;;;;;;;;38.53;13.52;99495.81;4373143;32;34754;-82
2022/07/20 11:06:44;;;;;;;;;;;;;;;39.56;12.81;99492.66;4376616;32;33537;-79
2022/07/20 11:09:31;;;;;;;;;;;;;;;39.12;12.97;99492.56;4369100;32;34872;-81
2022/07/20 11:11:58;;;;;;;;;;;;;;;39.16;13.16;99488.53;4373882;32;34002;-83
2022/07/20 11:14:25;;;;;;;;;;;;;;;38.99;13.63;99492.13;4368344;32;33877;-82
2022/07/20 11:16:55;;;;;;;;;;;;;;;39.11;13.69;99488.16;4374566;32;33409;-80
2022/07/20 11:19:23;;;;;;;;;;;;;;;39.81;12.69;99477.38;4377740;32;33698;-82
2022/07/20 11:21:50;;;;;;;;;;;;;;;39.56;12.66;99461.94;4389340;32;33807;-80
2022/07/20 11:24:22;;;;;;;;;;;;;;;38.77;14.30;99476.28;4384753;32;34823;-84
2022/07/20 11:26:52;;;;;;;;;;;;;;;39.03;13.81;99471.84;4346397;32;31864;-84
2022/07/20 11:29:22;;;;;;;;;;;;;;;39.82;13.18;99470.97;4353488;32;33007;-86
2022/07/20 11:31:49;;;;;;;;;;;;;;;39.97;12.93;99463.06;4368287;32;35161;-83
2022/07/20 11:34:16;;;;;;;;;;;;;;;39.80;12.63;99464.84;4362874;32;34389;-87
2022/07/20 11:36:44;;;;;;;;;;;;;;;39.68;12.91;99465.25;4365660;32;33454;-81
2022/07/20 11:39:11;;;;;;;;;;;;;;;38.92;13.67;99470.19;4363161;32;34898;-83
2022/07/20 11:41:42;;;;;;;;;;;;;;;39.11;13.04;99468.34;4349138;32;34391;-80
2022/07/20 11:44:17;;;;;;;;;;;;;;;38.84;13.80;99461.16;4375847;32;33991;-79
2022/07/20 11:46:45;;;;;;;;;;;;;;;39.73;13.39;99460.22;4378979;32;34308;-84
2022/07/20 11:49:13;;;;;;;;;;;;;;;39.70;12.71;99457.81;4351963;32;34798;-87
2022/07/20 11:51:59;;;;;;;;;;;;;;;39.33;13.56;99457.03;4373242;32;34553;-82
2022/07/20 11:54:33;;;;;;;;;;;;;;;39.71;12.63;99454.09;4379889;32;34028;-84
2022/07/20 11:57:01;;;;;;;;;;;;;;;39.37;13.39;99457.56;4362006;32;33549;-81
2022/07/20 11:59:29;;;;;;;;;;;;;;;39.14;13.11;99460.75;4348104;32;869845;-84
2022/07/20 12:01:57;;;;;;;;;;;;;;;39.63;12.58;99452.16;4375895;32;32906;-86
2022/07/20 12:04:25;;;;;;;;;;;;;;;38.35;13.63;99444.34;4376193;32;33694;-83
2022/07/20 12:06:53;;;;;;;;;;;;;;;39.79;13.04;99436.00;4362318;32;33891;-90
2022/07/20 12:09:21;;;;;;;;;;;;;;;38.17;13.77;99428.84;4368610;32;33879;-85
2022/07/20 12:12:08;;;;;;;;;;;;;;;39.10;13.61;99439.53;4362552;32;34412;-84
2022/07/20 12:14:36;;;;;;;;;;;;;;;38.52;13.93;99446.19;4376352;32;34211;-85
2022/07/20 12:17:23;;;;;;;;;;;;;;;39.95;12.37;99429.78;4375513;32;34031;-86
2022/07/20 12:19:51;;;;;;;;;;;;;;;39.28;13.72;99432.22;4373864;32;34933;-84
2022/07/20 12:22:20;;;;;;;;;;;;;;;38.79;13.16;99430.88;4387682;32;34371;-83
2022/07/20 12:24:57;;;;;;;;;;;;;;;38.43;13.18;99439.00;4390877;32;34008;-82
2022/07/20 12:27:26;;;;;;;;;;;;;;;38.28;13.54;99421.53;4383205;32;33515;-85
2022/07/20 12:29:54;;;;;;;;;;;;;;;37.73;14.17;99436.72;4380939;32;35123;-82
2022/07/20 12:32:32;;;;;;;;;;;;;;;38.50;13.88;99437.37;4362706;32;35181;-86
2022/07/20 12:35:01;;;;;;;;;;;;;;;38.59;13.46;99433.75;4376377;32;34424;-84
2022/07/20 12:37:46;;;;;;;;;;;;;;;38.92;13.32;99428.69;4376784;32;33353;-80
2022/07/20 12:40:28;;;;;;;;;;;;;;;39.41;12.82;99423.69;4380591;32;33858;-81
2022/07/20 12:42:56;;;;;;;;;;;;;;;38.75;13.04;99433.06;4376608;32;34067;-82
2022/07/20 12:45:25;;;;;;;;;;;;;;;39.73;12.65;99424.94;4376167;32;34362;-82
2022/07/20 12:47:53;;;;;;;;;;;;;;;39.81;12.88;99416.81;4362407;32;33072;-83
2022/07/20 12:50:33;;;;;;;;;;;;;;;40.37;11.98;99418.09;4381464;32;34585;-83
2022/07/20 12:53:00;;;;;;;;;;;;;;;40.62;11.84;99404.59;4362579;32;34024;-83
2022/07/20 12:55:27;;;;;;;;;;;;;;;39.38;13.37;99403.16;4376237;32;33793;-83
2022/07/20 12:57:55;;;;;;;;;;;;;;;39.89;11.91;99398.72;4390684;32;34180;-82
2022/07/20 13:00:22;;;;;;;;;;;;;;;39.98;12.27;99405.03;4383537;32;34921;-85